createdAt,value
2022-08-03T18:54:02.325Z,32.70
2022-08-03T18:56:26.743Z,32.30
2022-08-03T19:02:01.011Z,32.30
2022-08-03T19:04:49.550Z,32.30
2022-08-03T19:07:25.911Z,32.30
2022-08-03T19:09:55.683Z,32.30
2022-08-03T19:12:46.014Z,32.20
2022-08-03T19:15:15.755Z,32.20
2022-08-03T19:17:52.985Z,32.10
2022-08-03T19:20:28.327Z,32.10
2022-08-03T19:22:58.005Z,32.10
2022-08-03T19:25:34.250Z,31.90
2022-08-03T19:28:06.085Z,31.90
2022-08-03T19:30:46.231Z,31.90
2022-08-03T19:33:31.247Z,31.80
2022-08-03T19:36:25.638Z,31.80
2022-08-03T19:38:55.258Z,31.70
2022-08-03T19:41:27.430Z,31.60
2022-08-03T19:44:01.769Z,31.60
2022-08-03T19:46:36.043Z,31.50
2022-08-03T19:49:15.185Z,31.50
2022-08-03T19:52:01.248Z,31.40
2022-08-03T19:54:52.829Z,31.30
2022-08-03T19:57:27.219Z,31.20
2022-08-03T19:59:56.179Z,31.20
2022-08-03T20:02:26.152Z,31.10
2022-08-03T20:04:56.039Z,31.00
2022-08-03T20:07:25.960Z,31.00
2022-08-03T20:09:56.282Z,30.90
2022-08-03T20:12:31.295Z,30.80
2022-08-03T20:15:01.575Z,30.80
2022-08-03T20:17:56.125Z,30.80
2022-08-03T20:20:23.493Z,30.70
2022-08-03T20:22:57.516Z,30.60
2022-08-03T20:25:38.885Z,30.60
2022-08-03T20:28:15.113Z,30.50
2022-08-03T20:30:47.256Z,30.40
2022-08-03T20:33:18.818Z,30.50
2022-08-03T20:35:49.023Z,30.30
2022-08-03T20:38:19.396Z,30.20
2022-08-03T20:40:48.022Z,30.20
2022-08-03T20:43:15.957Z,30.20
2022-08-03T20:46:00.648Z,30.20
2022-08-03T20:48:31.914Z,30.10
2022-08-03T20:50:59.381Z,30.10
2022-08-03T20:53:59.592Z,30.10
2022-08-03T20:56:14.944Z,30.00
2022-08-03T20:58:50.466Z,30.00
2022-08-03T21:01:17.972Z,29.90
2022-08-03T21:03:56.840Z,29.90
2022-08-03T21:06:34.273Z,29.80
2022-08-03T21:09:05.221Z,29.80
2022-08-03T21:11:43.668Z,29.80
2022-08-03T21:13:00.963Z,32.30
2022-08-03T21:14:25.302Z,29.70
2022-08-03T21:16:55.787Z,29.60
2022-08-03T21:19:30.308Z,29.60
2022-08-03T21:21:58.975Z,29.50
2022-08-03T21:24:30.383Z,29.50
2022-08-03T21:26:57.331Z,29.50
2022-08-03T21:29:24.862Z,29.50
2022-08-03T21:31:51.857Z,29.30
2022-08-03T21:34:20.744Z,29.30
2022-08-03T21:36:47.681Z,29.30
2022-08-03T21:39:14.582Z,29.20
2022-08-03T21:41:41.628Z,29.20
2022-08-03T21:44:08.828Z,29.20
2022-08-03T21:46:39.075Z,29.20
2022-08-03T21:50:07.749Z,29.10
2022-08-03T21:52:01.617Z,29.20
2022-08-03T21:54:37.270Z,29.10
2022-08-03T21:57:08.738Z,29.10
2022-08-03T21:59:38.125Z,29.00
2022-08-03T22:02:06.460Z,29.00
2022-08-03T22:04:55.461Z,29.00
2022-08-03T22:07:28.292Z,29.00
2022-08-03T22:09:56.361Z,29.00
2022-08-03T22:12:27.214Z,28.90
2022-08-03T22:15:01.306Z,28.80
2022-08-03T22:17:55.885Z,28.80
2022-08-03T22:20:23.592Z,28.80
2022-08-03T22:22:55.964Z,28.70
2022-08-03T22:25:29.644Z,28.70
2022-08-03T22:27:58.636Z,28.60
2022-08-03T22:30:25.445Z,28.60
2022-08-03T22:32:54.854Z,28.50
2022-08-03T22:35:24.985Z,28.50
2022-08-03T22:37:59.513Z,28.30
2022-08-03T22:40:27.717Z,28.30
2022-08-03T22:42:57.330Z,28.20
2022-08-03T22:46:07.736Z,28.30
2022-08-03T22:48:13.232Z,28.30
2022-08-03T22:50:43.812Z,28.20
2022-08-03T22:53:22.794Z,28.20
2022-08-03T22:55:52.265Z,28.20
2022-08-03T22:58:22.655Z,28.10
2022-08-03T23:00:53.851Z,28.10
2022-08-03T23:03:59.902Z,28.00
2022-08-03T23:06:16.507Z,28.00
2022-08-03T23:08:46.096Z,27.90
2022-08-03T23:11:14.654Z,28.00
2022-08-03T23:13:41.650Z,28.00
2022-08-03T23:16:09.463Z,27.90
2022-08-03T23:18:42.597Z,27.80
2022-08-03T23:21:11.005Z,27.70
2022-08-03T23:23:44.239Z,27.50
2022-08-03T23:26:13.095Z,27.40
2022-08-03T23:28:41.501Z,27.40
2022-08-03T23:31:11.047Z,27.40
2022-08-03T23:33:40.746Z,27.40
2022-08-03T23:36:30.219Z,27.50
2022-08-03T23:39:02.010Z,27.40
2022-08-03T23:41:30.848Z,27.40
2022-08-03T23:44:00.827Z,27.30
2022-08-03T23:46:30.817Z,27.30
2022-08-03T23:49:00.692Z,27.20
2022-08-03T23:52:01.897Z,27.10
2022-08-03T23:54:34.429Z,27.00
2022-08-03T23:57:18.443Z,26.90
